sensor_id;sensor_type;location;lat;lon;timestamp;temperature;humidity
8862;DHT22;4799;50.996;4.754;2022-10-31T00:00:42;13.20;99.90
8862;DHT22;4799;50.996;4.754;2022-10-31T00:03:07;13.10;99.90
8862;DHT22;4799;50.996;4.754;2022-10-31T00:05:33;13.10;99.90
8862;DHT22;4799;50.996;4.754;2022-10-31T00:07:59;13.10;99.90
8862;DHT22;4799;50.996;4.754;2022-10-31T00:10:24;13.20;99.90
8862;DHT22;4799;50.996;4.754;2022-10-31T00:12:51;13.20;99.90
8862;DHT22;4799;50.996;4.754;2022-10-31T00:15:17;13.20;99.90
8862;DHT22;4799;50.996;4.754;2022-10-31T00:17:43;13.20;99.90
8862;DHT22;4799;50.996;4.754;2022-10-31T00:20:09;13.20;99.90
8862;DHT22;4799;50.996;4.754;2022-10-31T00:22:34;13.20;99.90
8862;DHT22;4799;50.996;4.754;2022-10-31T00:25:00;13.20;99.90
8862;DHT22;4799;50.996;4.754;2022-10-31T00:27:26;13.10;99.90
8862;DHT22;4799;50.996;4.754;2022-10-31T00:29:51;13.10;99.90
8862;DHT22;4799;50.996;4.754;2022-10-31T00:32:17;13.00;99.90
8862;DHT22;4799;50.996;4.754;2022-10-31T00:34:43;13.00;99.90
8862;DHT22;4799;50.996;4.754;2022-10-31T00:37:08;13.00;99.90
8862;DHT22;4799;50.996;4.754;2022-10-31T00:39:34;12.90;99.90
8862;DHT22;4799;50.996;4.754;2022-10-31T00:42:00;12.80;99.90
8862;DHT22;4799;50.996;4.754;2022-10-31T00:44:25;12.80;99.90
8862;DHT22;4799;50.996;4.754;2022-10-31T00:46:51;12.70;99.90
8862;DHT22;4799;50.996;4.754;2022-10-31T00:49:17;12.70;99.90
8862;DHT22;4799;50.996;4.754;2022-10-31T00:51:42;12.60;99.90
8862;DHT22;4799;50.996;4.754;2022-10-31T00:54:08;12.60;99.90
8862;DHT22;4799;50.996;4.754;2022-10-31T00:56:34;12.50;99.90
8862;DHT22;4799;50.996;4.754;2022-10-31T00:58:59;12.50;99.90
8862;DHT22;4799;50.996;4.754;2022-10-31T01:01:25;12.50;99.90
8862;DHT22;4799;50.996;4.754;2022-10-31T01:03:51;12.50;99.90
8862;DHT22;4799;50.996;4.754;2022-10-31T01:06:16;12.50;99.90
8862;DHT22;4799;50.996;4.754;2022-10-31T01:08:42;12.40;99.90
8862;DHT22;4799;50.996;4.754;2022-10-31T01:11:18;12.40;99.90
8862;DHT22;4799;50.996;4.754;2022-10-31T01:13:45;12.30;99.90
8862;DHT22;4799;50.996;4.754;2022-10-31T01:16:14;12.30;99.90
8862;DHT22;4799;50.996;4.754;2022-10-31T01:18:41;12.20;99.90
8862;DHT22;4799;50.996;4.754;2022-10-31T01:21:14;12.10;99.90
8862;DHT22;4799;50.996;4.754;2022-10-31T01:23:40;12.10;99.90
8862;DHT22;4799;50.996;4.754;2022-10-31T01:26:09;12.10;99.90
8862;DHT22;4799;50.996;4.754;2022-10-31T01:28:37;12.00;99.90
8862;DHT22;4799;50.996;4.754;2022-10-31T01:31:06;11.90;99.90
8862;DHT22;4799;50.996;4.754;2022-10-31T01:33:33;11.90;99.90
8862;DHT22;4799;50.996;4.754;2022-10-31T01:35:59;11.90;99.90
8862;DHT22;4799;50.996;4.754;2022-10-31T01:38:25;11.80;99.90
8862;DHT22;4799;50.996;4.754;2022-10-31T01:40:51;11.80;99.90
8862;DHT22;4799;50.996;4.754;2022-10-31T01:43:17;11.80;99.90
8862;DHT22;4799;50.996;4.754;2022-10-31T01:45:48;11.80;99.90
8862;DHT22;4799;50.996;4.754;2022-10-31T01:48:18;11.80;99.90
8862;DHT22;4799;50.996;4.754;2022-10-31T01:50:47;11.80;99.90
8862;DHT22;4799;50.996;4.754;2022-10-31T01:53:15;11.80;99.90
8862;DHT22;4799;50.996;4.754;2022-10-31T01:55:44;11.80;99.90
8862;DHT22;4799;50.996;4.754;2022-10-31T01:58:15;11.80;99.90
8862;DHT22;4799;50.996;4.754;2022-10-31T02:00:44;11.80;99.90
8862;DHT22;4799;50.996;4.754;2022-10-31T02:03:11;11.70;99.90
8862;DHT22;4799;50.996;4.754;2022-10-31T02:05:37;11.70;99.90
8862;DHT22;4799;50.996;4.754;2022-10-31T02:08:26;11.70;99.90
8862;DHT22;4799;50.996;4.754;2022-10-31T02:10:49;11.70;99.90
8862;DHT22;4799;50.996;4.754;2022-10-31T02:13:15;11.70;99.90
8862;DHT22;4799;50.996;4.754;2022-10-31T02:15:44;11.70;99.90
8862;DHT22;4799;50.996;4.754;2022-10-31T02:18:10;11.60;99.90
8862;DHT22;4799;50.996;4.754;2022-10-31T02:26:12;11.50;99.90
8862;DHT22;4799;50.996;4.754;2022-10-31T02:29:05;11.50;99.90
8862;DHT22;4799;50.996;4.754;2022-10-31T02:34:37;11.40;99.90
8862;DHT22;4799;50.996;4.754;2022-10-31T02:37:32;11.40;99.90
8862;DHT22;4799;50.996;4.754;2022-10-31T02:43:08;11.30;99.90
8862;DHT22;4799;50.996;4.754;2022-10-31T02:48:12;11.20;99.90
8862;DHT22;4799;50.996;4.754;2022-10-31T02:50:42;11.30;99.90
8862;DHT22;4799;50.996;4.754;2022-10-31T02:53:09;11.30;99.90
8862;DHT22;4799;50.996;4.754;2022-10-31T02:58:14;11.20;99.90
8862;DHT22;4799;50.996;4.754;2022-10-31T03:09:24;11.10;99.90
8862;DHT22;4799;50.996;4.754;2022-10-31T03:12:11;11.10;99.90
8862;DHT22;4799;50.996;4.754;2022-10-31T03:14:43;11.10;99.90
8862;DHT22;4799;50.996;4.754;2022-10-31T03:17:20;11.10;99.90
8862;DHT22;4799;50.996;4.754;2022-10-31T03:19:49;11.10;99.90
8862;DHT22;4799;50.996;4.754;2022-10-31T03:22:21;11.10;99.90
8862;DHT22;4799;50.996;4.754;2022-10-31T03:24:48;11.10;99.90
8862;DHT22;4799;50.996;4.754;2022-10-31T03:27:18;11.10;99.90
8862;DHT22;4799;50.996;4.754;2022-10-31T03:29:45;11.10;99.90
8862;DHT22;4799;50.996;4.754;2022-10-31T03:32:28;11.10;99.90
8862;DHT22;4799;50.996;4.754;2022-10-31T03:34:57;11.00;99.90
8862;DHT22;4799;50.996;4.754;2022-10-31T03:37:25;11.00;99.90
8862;DHT22;4799;50.996;4.754;2022-10-31T03:39:54;10.90;99.90
8862;DHT22;4799;50.996;4.754;2022-10-31T03:42:30;10.90;99.90
8862;DHT22;4799;50.996;4.754;2022-10-31T03:45:03;10.90;99.90
8862;DHT22;4799;50.996;4.754;2022-10-31T03:47:30;10.90;99.90
8862;DHT22;4799;50.996;4.754;2022-10-31T03:49:57;10.90;99.90
8862;DHT22;4799;50.996;4.754;2022-10-31T03:55:18;11.00;99.90
8862;DHT22;4799;50.996;4.754;2022-10-31T03:58:05;11.00;99.90
8862;DHT22;4799;50.996;4.754;2022-10-31T04:00:34;11.00;99.90
8862;DHT22;4799;50.996;4.754;2022-10-31T04:03:17;11.00;99.90
8862;DHT22;4799;50.996;4.754;2022-10-31T04:05:46;10.90;99.90
8862;DHT22;4799;50.996;4.754;2022-10-31T04:08:16;10.90;99.90
8862;DHT22;4799;50.996;4.754;2022-10-31T04:10:44;10.80;99.90
8862;DHT22;4799;50.996;4.754;2022-10-31T04:13:14;10.80;99.90
8862;DHT22;4799;50.996;4.754;2022-10-31T04:15:42;10.80;99.90
8862;DHT22;4799;50.996;4.754;2022-10-31T04:18:08;10.80;99.90
8862;DHT22;4799;50.996;4.754;2022-10-31T04:20:39;10.80;99.90
8862;DHT22;4799;50.996;4.754;2022-10-31T04:23:16;10.80;99.90
8862;DHT22;4799;50.996;4.754;2022-10-31T04:25:42;10.80;99.90
8862;DHT22;4799;50.996;4.754;2022-10-31T04:28:08;10.80;99.90
8862;DHT22;4799;50.996;4.754;2022-10-31T04:30:34;10.80;99.90
8862;DHT22;4799;50.996;4.754;2022-10-31T04:33:00;10.80;99.90
8862;DHT22;4799;50.996;4.754;2022-10-31T04:35:25;10.80;99.90
8862;DHT22;4799;50.996;4.754;2022-10-31T04:37:51;10.80;99.90
8862;DHT22;4799;50.996;4.754;2022-10-31T04:40:17;10.80;99.90
8862;DHT22;4799;50.996;4.754;2022-10-31T04:42:42;10.80;99.90
8862;DHT22;4799;50.996;4.754;2022-10-31T04:45:08;10.80;99.90
8862;DHT22;4799;50.996;4.754;2022-10-31T04:47:34;10.80;99.90
8862;DHT22;4799;50.996;4.754;2022-10-31T04:50:00;10.80;99.90
8862;DHT22;4799;50.996;4.754;2022-10-31T04:52:26;10.80;99.90
8862;DHT22;4799;50.996;4.754;2022-10-31T04:54:52;10.80;99.90
8862;DHT22;4799;50.996;4.754;2022-10-31T04:57:17;10.70;99.90
8862;DHT22;4799;50.996;4.754;2022-10-31T04:59:43;10.80;99.90
8862;DHT22;4799;50.996;4.754;2022-10-31T05:02:09;10.80;99.90
8862;DHT22;4799;50.996;4.754;2022-10-31T05:04:35;10.80;99.90
8862;DHT22;4799;50.996;4.754;2022-10-31T05:07:00;10.80;99.90
8862;DHT22;4799;50.996;4.754;2022-10-31T05:09:26;10.80;99.90
8862;DHT22;4799;50.996;4.754;2022-10-31T05:11:52;10.80;99.90
8862;DHT22;4799;50.996;4.754;2022-10-31T05:14:17;10.90;99.90
8862;DHT22;4799;50.996;4.754;2022-10-31T05:16:43;10.90;99.90
8862;DHT22;4799;50.996;4.754;2022-10-31T05:19:09;10.90;99.90
8862;DHT22;4799;50.996;4.754;2022-10-31T05:21:34;10.90;99.90
8862;DHT22;4799;50.996;4.754;2022-10-31T05:24:00;10.90;99.90
8862;DHT22;4799;50.996;4.754;2022-10-31T05:26:26;10.90;99.90
8862;DHT22;4799;50.996;4.754;2022-10-31T05:28:51;10.90;99.90
8862;DHT22;4799;50.996;4.754;2022-10-31T05:31:17;10.90;99.90
8862;DHT22;4799;50.996;4.754;2022-10-31T05:33:43;10.90;99.90
8862;DHT22;4799;50.996;4.754;2022-10-31T05:36:09;10.90;99.90
8862;DHT22;4799;50.996;4.754;2022-10-31T05:38:34;10.90;99.90
8862;DHT22;4799;50.996;4.754;2022-10-31T05:41:00;10.90;99.90
8862;DHT22;4799;50.996;4.754;2022-10-31T05:43:27;10.90;99.90
8862;DHT22;4799;50.996;4.754;2022-10-31T05:45:54;11.00;99.90
8862;DHT22;4799;50.996;4.754;2022-10-31T05:48:20;11.00;99.90
8862;DHT22;4799;50.996;4.754;2022-10-31T05:50:48;11.00;99.90
8862;DHT22;4799;50.996;4.754;2022-10-31T05:53:14;11.00;99.90
8862;DHT22;4799;50.996;4.754;2022-10-31T05:55:41;11.00;99.90
8862;DHT22;4799;50.996;4.754;2022-10-31T05:58:07;11.10;99.90
8862;DHT22;4799;50.996;4.754;2022-10-31T06:00:33;11.10;99.90
8862;DHT22;4799;50.996;4.754;2022-10-31T06:03:05;11.00;99.90
8862;DHT22;4799;50.996;4.754;2022-10-31T06:05:32;11.00;99.90
8862;DHT22;4799;50.996;4.754;2022-10-31T06:07:58;11.00;99.90
8862;DHT22;4799;50.996;4.754;2022-10-31T06:10:24;11.00;99.90
8862;DHT22;4799;50.996;4.754;2022-10-31T06:12:50;11.00;99.90
8862;DHT22;4799;50.996;4.754;2022-10-31T06:15:17;11.00;99.90
8862;DHT22;4799;50.996;4.754;2022-10-31T06:17:43;11.00;99.90
8862;DHT22;4799;50.996;4.754;2022-10-31T06:20:09;11.10;99.90
8862;DHT22;4799;50.996;4.754;2022-10-31T06:22:35;11.10;99.90
8862;DHT22;4799;50.996;4.754;2022-10-31T06:25:01;11.10;99.90
8862;DHT22;4799;50.996;4.754;2022-10-31T06:27:27;11.20;99.90
8862;DHT22;4799;50.996;4.754;2022-10-31T06:29:53;11.20;99.90
8862;DHT22;4799;50.996;4.754;2022-10-31T06:32:19;11.20;99.90
8862;DHT22;4799;50.996;4.754;2022-10-31T06:34:44;11.30;99.90
8862;DHT22;4799;50.996;4.754;2022-10-31T06:37:13;11.30;99.90
8862;DHT22;4799;50.996;4.754;2022-10-31T06:39:40;11.30;99.90
8862;DHT22;4799;50.996;4.754;2022-10-31T06:42:06;11.30;99.90
8862;DHT22;4799;50.996;4.754;2022-10-31T06:44:31;11.40;99.90
8862;DHT22;4799;50.996;4.754;2022-10-31T06:46:57;11.40;99.90
8862;DHT22;4799;50.996;4.754;2022-10-31T06:49:23;11.40;99.90
8862;DHT22;4799;50.996;4.754;2022-10-31T06:51:49;11.40;99.90
8862;DHT22;4799;50.996;4.754;2022-10-31T06:54:15;11.40;99.90
8862;DHT22;4799;50.996;4.754;2022-10-31T06:56:41;11.40;99.90
8862;DHT22;4799;50.996;4.754;2022-10-31T06:59:07;11.40;99.90
8862;DHT22;4799;50.996;4.754;2022-10-31T07:01:33;11.40;99.90
8862;DHT22;4799;50.996;4.754;2022-10-31T07:03:58;11.40;99.90
8862;DHT22;4799;50.996;4.754;2022-10-31T07:06:24;11.40;99.90
8862;DHT22;4799;50.996;4.754;2022-10-31T07:08:50;11.50;99.90
8862;DHT22;4799;50.996;4.754;2022-10-31T07:11:16;11.50;99.90
8862;DHT22;4799;50.996;4.754;2022-10-31T07:13:41;11.60;99.90
8862;DHT22;4799;50.996;4.754;2022-10-31T07:16:08;11.60;99.90
8862;DHT22;4799;50.996;4.754;2022-10-31T07:18:36;11.70;99.90
8862;DHT22;4799;50.996;4.754;2022-10-31T07:21:02;11.70;99.90
8862;DHT22;4799;50.996;4.754;2022-10-31T07:23:28;11.80;99.90
8862;DHT22;4799;50.996;4.754;2022-10-31T07:25:58;11.90;99.90
8862;DHT22;4799;50.996;4.754;2022-10-31T07:28:25;11.90;99.90
8862;DHT22;4799;50.996;4.754;2022-10-31T07:30:53;12.00;99.90
8862;DHT22;4799;50.996;4.754;2022-10-31T07:33:19;12.00;99.90
8862;DHT22;4799;50.996;4.754;2022-10-31T07:35:45;12.00;99.90
8862;DHT22;4799;50.996;4.754;2022-10-31T07:38:12;12.10;99.90
8862;DHT22;4799;50.996;4.754;2022-10-31T07:40:39;12.20;99.90
8862;DHT22;4799;50.996;4.754;2022-10-31T07:43:05;12.20;99.90
8862;DHT22;4799;50.996;4.754;2022-10-31T07:45:31;12.20;99.90
8862;DHT22;4799;50.996;4.754;2022-10-31T07:47:57;12.20;99.90
8862;DHT22;4799;50.996;4.754;2022-10-31T07:50:27;12.30;99.90
8862;DHT22;4799;50.996;4.754;2022-10-31T07:55:28;12.40;99.90
8862;DHT22;4799;50.996;4.754;2022-10-31T07:58:00;12.40;99.90
8862;DHT22;4799;50.996;4.754;2022-10-31T08:00:26;12.50;99.90
8862;DHT22;4799;50.996;4.754;2022-10-31T08:03:18;12.60;99.90
8862;DHT22;4799;50.996;4.754;2022-10-31T08:05:44;12.70;99.90
8862;DHT22;4799;50.996;4.754;2022-10-31T08:08:11;12.80;99.90
8862;DHT22;4799;50.996;4.754;2022-10-31T08:10:37;12.90;99.90
8862;DHT22;4799;50.996;4.754;2022-10-31T08:13:08;12.90;99.90
8862;DHT22;4799;50.996;4.754;2022-10-31T08:15:35;13.00;99.90
8862;DHT22;4799;50.996;4.754;2022-10-31T08:18:04;13.10;99.90
8862;DHT22;4799;50.996;4.754;2022-10-31T08:20:30;13.10;99.90
8862;DHT22;4799;50.996;4.754;2022-10-31T08:23:00;13.20;99.90
8862;DHT22;4799;50.996;4.754;2022-10-31T08:25:29;13.30;99.90
8862;DHT22;4799;50.996;4.754;2022-10-31T08:27:56;13.40;99.90
8862;DHT22;4799;50.996;4.754;2022-10-31T08:30:25;13.40;99.90
8862;DHT22;4799;50.996;4.754;2022-10-31T08:33:00;13.50;99.90
8862;DHT22;4799;50.996;4.754;2022-10-31T08:35:26;13.60;99.90
8862;DHT22;4799;50.996;4.754;2022-10-31T08:37:53;13.70;99.90
8862;DHT22;4799;50.996;4.754;2022-10-31T08:40:19;13.70;99.90
8862;DHT22;4799;50.996;4.754;2022-10-31T08:42:45;13.80;99.90
8862;DHT22;4799;50.996;4.754;2022-10-31T08:45:11;13.90;99.90
8862;DHT22;4799;50.996;4.754;2022-10-31T08:47:36;13.90;99.90
8862;DHT22;4799;50.996;4.754;2022-10-31T08:50:02;14.00;99.90
8862;DHT22;4799;50.996;4.754;2022-10-31T08:52:28;14.10;99.90
8862;DHT22;4799;50.996;4.754;2022-10-31T08:54:54;14.10;99.90
8862;DHT22;4799;50.996;4.754;2022-10-31T08:57:20;14.00;99.90
8862;DHT22;4799;50.996;4.754;2022-10-31T08:59:45;14.00;99.90
8862;DHT22;4799;50.996;4.754;2022-10-31T09:02:11;14.10;99.90
8862;DHT22;4799;50.996;4.754;2022-10-31T09:04:37;14.00;99.90
8862;DHT22;4799;50.996;4.754;2022-10-31T09:07:02;14.00;99.90
8862;DHT22;4799;50.996;4.754;2022-10-31T09:09:28;14.10;99.90
8862;DHT22;4799;50.996;4.754;2022-10-31T09:11:54;14.10;99.90
8862;DHT22;4799;50.996;4.754;2022-10-31T09:14:19;14.20;99.90
8862;DHT22;4799;50.996;4.754;2022-10-31T09:16:45;14.20;99.90
8862;DHT22;4799;50.996;4.754;2022-10-31T09:19:11;14.30;99.90
8862;DHT22;4799;50.996;4.754;2022-10-31T09:21:36;14.30;99.90
8862;DHT22;4799;50.996;4.754;2022-10-31T09:24:02;14.30;99.90
8862;DHT22;4799;50.996;4.754;2022-10-31T09:26:28;14.30;99.90
8862;DHT22;4799;50.996;4.754;2022-10-31T09:28:53;14.30;99.90
8862;DHT22;4799;50.996;4.754;2022-10-31T09:31:19;14.30;99.90
8862;DHT22;4799;50.996;4.754;2022-10-31T09:33:45;14.40;99.90
8862;DHT22;4799;50.996;4.754;2022-10-31T09:36:10;14.50;99.90
8862;DHT22;4799;50.996;4.754;2022-10-31T09:38:36;14.50;99.90
8862;DHT22;4799;50.996;4.754;2022-10-31T09:41:19;14.60;99.90
8862;DHT22;4799;50.996;4.754;2022-10-31T09:52:24;14.90;99.90
8862;DHT22;4799;50.996;4.754;2022-10-31T09:54:53;14.90;99.90
8862;DHT22;4799;50.996;4.754;2022-10-31T09:57:27;15.00;99.90
8862;DHT22;4799;50.996;4.754;2022-10-31T09:59:54;15.00;99.90
8862;DHT22;4799;50.996;4.754;2022-10-31T10:02:39;15.10;99.90
8862;DHT22;4799;50.996;4.754;2022-10-31T10:05:25;15.10;99.90
8862;DHT22;4799;50.996;4.754;2022-10-31T10:07:55;15.10;99.90
8862;DHT22;4799;50.996;4.754;2022-10-31T10:16:36;15.30;99.90
8862;DHT22;4799;50.996;4.754;2022-10-31T10:19:28;15.40;99.90
8862;DHT22;4799;50.996;4.754;2022-10-31T10:31:12;15.90;99.90
8862;DHT22;4799;50.996;4.754;2022-10-31T10:37:01;16.10;99.90
8862;DHT22;4799;50.996;4.754;2022-10-31T10:39:38;16.20;99.90
8862;DHT22;4799;50.996;4.754;2022-10-31T10:42:13;16.30;99.90
8862;DHT22;4799;50.996;4.754;2022-10-31T10:44:58;16.40;99.90
8862;DHT22;4799;50.996;4.754;2022-10-31T10:47:46;16.60;99.90
8862;DHT22;4799;50.996;4.754;2022-10-31T10:50:19;16.70;99.90
8862;DHT22;4799;50.996;4.754;2022-10-31T10:52:57;16.80;99.90
8862;DHT22;4799;50.996;4.754;2022-10-31T10:55:41;16.80;99.90
8862;DHT22;4799;50.996;4.754;2022-10-31T10:58:09;16.90;99.90
8862;DHT22;4799;50.996;4.754;2022-10-31T11:00:44;17.00;99.90
8862;DHT22;4799;50.996;4.754;2022-10-31T11:03:13;17.10;99.90
8862;DHT22;4799;50.996;4.754;2022-10-31T11:05:51;17.20;99.90
8862;DHT22;4799;50.996;4.754;2022-10-31T11:08:43;17.20;99.90
8862;DHT22;4799;50.996;4.754;2022-10-31T11:11:23;17.30;99.90
8862;DHT22;4799;50.996;4.754;2022-10-31T11:13:56;17.40;99.90
8862;DHT22;4799;50.996;4.754;2022-10-31T11:16:36;17.50;99.90
8862;DHT22;4799;50.996;4.754;2022-10-31T11:19:20;17.60;99.90
8862;DHT22;4799;50.996;4.754;2022-10-31T11:21:47;17.60;99.90
8862;DHT22;4799;50.996;4.754;2022-10-31T11:24:22;17.60;99.90
8862;DHT22;4799;50.996;4.754;2022-10-31T11:26:50;17.60;99.90
8862;DHT22;4799;50.996;4.754;2022-10-31T11:29:22;17.60;99.90
8862;DHT22;4799;50.996;4.754;2022-10-31T11:31:50;17.60;99.90
8862;DHT22;4799;50.996;4.754;2022-10-31T11:34:30;17.60;99.90
8862;DHT22;4799;50.996;4.754;2022-10-31T11:37:20;17.60;99.90
8862;DHT22;4799;50.996;4.754;2022-10-31T11:39:54;17.70;99.90
8862;DHT22;4799;50.996;4.754;2022-10-31T11:42:22;17.80;99.90
8862;DHT22;4799;50.996;4.754;2022-10-31T11:44:50;17.90;99.90
8862;DHT22;4799;50.996;4.754;2022-10-31T11:47:17;18.00;99.90
8862;DHT22;4799;50.996;4.754;2022-10-31T11:49:47;18.00;99.90
8862;DHT22;4799;50.996;4.754;2022-10-31T11:54:58;18.10;99.90
8862;DHT22;4799;50.996;4.754;2022-10-31T11:57:28;18.10;99.90
8862;DHT22;4799;50.996;4.754;2022-10-31T11:59:57;18.20;99.90
8862;DHT22;4799;50.996;4.754;2022-10-31T12:02:24;18.20;99.90
8862;DHT22;4799;50.996;4.754;2022-10-31T12:07:30;18.30;99.90
8862;DHT22;4799;50.996;4.754;2022-10-31T12:09:57;18.30;99.90
8862;DHT22;4799;50.996;4.754;2022-10-31T12:15:31;18.40;99.90
8862;DHT22;4799;50.996;4.754;2022-10-31T12:26:40;18.60;99.90
8862;DHT22;4799;50.996;4.754;2022-10-31T12:37:39;18.70;99.90
8862;DHT22;4799;50.996;4.754;2022-10-31T12:40:26;18.70;99.90
8862;DHT22;4799;50.996;4.754;2022-10-31T12:45:59;18.70;99.90
8862;DHT22;4799;50.996;4.754;2022-10-31T12:48:51;18.70;99.90
8862;DHT22;4799;50.996;4.754;2022-10-31T12:57:26;18.60;99.90
8862;DHT22;4799;50.996;4.754;2022-10-31T12:59:56;18.60;99.90
8862;DHT22;4799;50.996;4.754;2022-10-31T13:05:01;18.60;99.90
8862;DHT22;4799;50.996;4.754;2022-10-31T13:07:42;18.60;99.90
8862;DHT22;4799;50.996;4.754;2022-10-31T13:12:39;18.50;99.90
8862;DHT22;4799;50.996;4.754;2022-10-31T13:15:18;18.50;99.90
8862;DHT22;4799;50.996;4.754;2022-10-31T13:17:52;18.40;99.90
8862;DHT22;4799;50.996;4.754;2022-10-31T13:22:53;18.30;99.90
8862;DHT22;4799;50.996;4.754;2022-10-31T13:25:25;18.30;99.90
8862;DHT22;4799;50.996;4.754;2022-10-31T13:28:03;18.30;99.90
8862;DHT22;4799;50.996;4.754;2022-10-31T13:30:32;18.40;99.90
8862;DHT22;4799;50.996;4.754;2022-10-31T13:36:00;18.50;99.90
8862;DHT22;4799;50.996;4.754;2022-10-31T13:39:03;18.60;99.90
8862;DHT22;4799;50.996;4.754;2022-10-31T13:41:52;18.60;99.90
8862;DHT22;4799;50.996;4.754;2022-10-31T13:44:29;18.70;99.90
8862;DHT22;4799;50.996;4.754;2022-10-31T13:46:57;18.80;99.90
8862;DHT22;4799;50.996;4.754;2022-10-31T13:49:36;18.80;99.90
8862;DHT22;4799;50.996;4.754;2022-10-31T14:00:01;18.60;99.90
8862;DHT22;4799;50.996;4.754;2022-10-31T14:02:34;18.60;99.90
8862;DHT22;4799;50.996;4.754;2022-10-31T14:05:06;18.50;99.90
8862;DHT22;4799;50.996;4.754;2022-10-31T14:07:44;18.50;99.90
8862;DHT22;4799;50.996;4.754;2022-10-31T14:12:54;18.30;99.90
8862;DHT22;4799;50.996;4.754;2022-10-31T14:15:28;18.30;99.90
8862;DHT22;4799;50.996;4.754;2022-10-31T14:18:24;18.20;99.90
8862;DHT22;4799;50.996;4.754;2022-10-31T14:20:54;18.20;99.90
8862;DHT22;4799;50.996;4.754;2022-10-31T14:23:36;18.10;99.90
8862;DHT22;4799;50.996;4.754;2022-10-31T14:29:27;18.00;99.90
8862;DHT22;4799;50.996;4.754;2022-10-31T14:34:38;17.90;99.90
8862;DHT22;4799;50.996;4.754;2022-10-31T14:42:52;17.90;99.90
8862;DHT22;4799;50.996;4.754;2022-10-31T14:45:24;17.80;99.90
8862;DHT22;4799;50.996;4.754;2022-10-31T14:50:51;17.80;99.90
8862;DHT22;4799;50.996;4.754;2022-10-31T14:53:31;17.80;99.90
8862;DHT22;4799;50.996;4.754;2022-10-31T14:55:58;17.70;99.90
8862;DHT22;4799;50.996;4.754;2022-10-31T14:58:42;17.70;99.90
8862;DHT22;4799;50.996;4.754;2022-10-31T15:01:27;17.70;99.90
8862;DHT22;4799;50.996;4.754;2022-10-31T15:04:02;17.60;99.90
8862;DHT22;4799;50.996;4.754;2022-10-31T15:06:35;17.60;99.90
8862;DHT22;4799;50.996;4.754;2022-10-31T15:09:03;17.60;99.90
8862;DHT22;4799;50.996;4.754;2022-10-31T15:11:37;17.60;99.90
8862;DHT22;4799;50.996;4.754;2022-10-31T15:14:24;17.50;99.90
8862;DHT22;4799;50.996;4.754;2022-10-31T15:16:51;17.50;99.90
8862;DHT22;4799;50.996;4.754;2022-10-31T15:19:24;17.50;99.90
8862;DHT22;4799;50.996;4.754;2022-10-31T15:21:53;17.50;99.90
8862;DHT22;4799;50.996;4.754;2022-10-31T15:24:19;17.50;99.90
8862;DHT22;4799;50.996;4.754;2022-10-31T15:26:49;17.40;99.90
8862;DHT22;4799;50.996;4.754;2022-10-31T15:29:18;17.40;99.90
8862;DHT22;4799;50.996;4.754;2022-10-31T15:34:38;17.20;99.90
8862;DHT22;4799;50.996;4.754;2022-10-31T15:37:09;17.20;99.90
8862;DHT22;4799;50.996;4.754;2022-10-31T15:39:36;17.10;99.90
8862;DHT22;4799;50.996;4.754;2022-10-31T15:42:01;17.10;99.90
8862;DHT22;4799;50.996;4.754;2022-10-31T15:44:36;17.00;99.90
8862;DHT22;4799;50.996;4.754;2022-10-31T15:47:22;16.90;99.90
8862;DHT22;4799;50.996;4.754;2022-10-31T15:49:54;16.90;99.90
8862;DHT22;4799;50.996;4.754;2022-10-31T15:52:38;16.80;99.90
8862;DHT22;4799;50.996;4.754;2022-10-31T15:57:44;16.60;99.90
8862;DHT22;4799;50.996;4.754;2022-10-31T16:00:30;16.50;99.90
8862;DHT22;4799;50.996;4.754;2022-10-31T16:03:29;16.40;99.90
8862;DHT22;4799;50.996;4.754;2022-10-31T16:06:00;16.30;99.90
8862;DHT22;4799;50.996;4.754;2022-10-31T16:11:45;16.20;99.90
8862;DHT22;4799;50.996;4.754;2022-10-31T16:14:04;16.10;99.90
8862;DHT22;4799;50.996;4.754;2022-10-31T16:16:32;16.00;99.90
8862;DHT22;4799;50.996;4.754;2022-10-31T16:18:59;16.00;99.90
8862;DHT22;4799;50.996;4.754;2022-10-31T16:21:35;15.90;99.90
8862;DHT22;4799;50.996;4.754;2022-10-31T16:24:10;15.90;99.90
8862;DHT22;4799;50.996;4.754;2022-10-31T16:26:38;15.90;99.90
8862;DHT22;4799;50.996;4.754;2022-10-31T16:29:04;15.80;99.90
8862;DHT22;4799;50.996;4.754;2022-10-31T16:31:47;15.70;99.90
8862;DHT22;4799;50.996;4.754;2022-10-31T16:34:22;15.70;99.90
8862;DHT22;4799;50.996;4.754;2022-10-31T16:36:49;15.60;99.90
8862;DHT22;4799;50.996;4.754;2022-10-31T16:39:15;15.60;99.90
8862;DHT22;4799;50.996;4.754;2022-10-31T16:41:44;15.50;99.90
8862;DHT22;4799;50.996;4.754;2022-10-31T16:44:29;15.40;99.90
8862;DHT22;4799;50.996;4.754;2022-10-31T16:49:32;15.30;99.90
8862;DHT22;4799;50.996;4.754;2022-10-31T16:51:58;15.30;99.90
8862;DHT22;4799;50.996;4.754;2022-10-31T16:54:24;15.20;99.90
8862;DHT22;4799;50.996;4.754;2022-10-31T16:56:49;15.20;99.90
8862;DHT22;4799;50.996;4.754;2022-10-31T16:59:15;15.20;99.90
8862;DHT22;4799;50.996;4.754;2022-10-31T17:01:44;15.20;99.90
8862;DHT22;4799;50.996;4.754;2022-10-31T17:04:14;15.10;99.90
8862;DHT22;4799;50.996;4.754;2022-10-31T17:06:41;15.10;99.90
8862;DHT22;4799;50.996;4.754;2022-10-31T17:09:07;15.10;99.90
8862;DHT22;4799;50.996;4.754;2022-10-31T17:11:33;15.10;99.90
8862;DHT22;4799;50.996;4.754;2022-10-31T17:13:59;15.10;99.90
8862;DHT22;4799;50.996;4.754;2022-10-31T17:16:26;15.00;99.90
8862;DHT22;4799;50.996;4.754;2022-10-31T17:18:52;15.00;99.90
8862;DHT22;4799;50.996;4.754;2022-10-31T17:21:21;15.00;99.90
8862;DHT22;4799;50.996;4.754;2022-10-31T17:23:48;15.00;99.90
8862;DHT22;4799;50.996;4.754;2022-10-31T17:26:14;15.00;99.90
8862;DHT22;4799;50.996;4.754;2022-10-31T17:28:40;15.00;99.90
8862;DHT22;4799;50.996;4.754;2022-10-31T17:31:07;14.90;99.90
8862;DHT22;4799;50.996;4.754;2022-10-31T17:33:36;14.90;99.90
8862;DHT22;4799;50.996;4.754;2022-10-31T17:36:02;14.90;99.90
8862;DHT22;4799;50.996;4.754;2022-10-31T17:38:28;14.90;99.90
8862;DHT22;4799;50.996;4.754;2022-10-31T17:40:54;14.80;99.90
8862;DHT22;4799;50.996;4.754;2022-10-31T17:43:20;14.80;99.90
8862;DHT22;4799;50.996;4.754;2022-10-31T17:45:46;14.80;99.90
8862;DHT22;4799;50.996;4.754;2022-10-31T17:48:11;14.70;99.90
8862;DHT22;4799;50.996;4.754;2022-10-31T17:50:37;14.70;99.90
8862;DHT22;4799;50.996;4.754;2022-10-31T17:53:03;14.70;99.90
8862;DHT22;4799;50.996;4.754;2022-10-31T17:55:30;14.70;99.90
8862;DHT22;4799;50.996;4.754;2022-10-31T17:57:55;14.60;99.90
8862;DHT22;4799;50.996;4.754;2022-10-31T18:00:21;14.60;99.90
8862;DHT22;4799;50.996;4.754;2022-10-31T18:02:49;14.60;99.90
8862;DHT22;4799;50.996;4.754;2022-10-31T18:05:15;14.50;99.90
8862;DHT22;4799;50.996;4.754;2022-10-31T18:07:41;14.50;99.90
8862;DHT22;4799;50.996;4.754;2022-10-31T18:10:07;14.50;99.90
8862;DHT22;4799;50.996;4.754;2022-10-31T18:12:35;14.40;99.90
8862;DHT22;4799;50.996;4.754;2022-10-31T18:15:01;14.40;99.90
8862;DHT22;4799;50.996;4.754;2022-10-31T18:17:26;14.40;99.90
8862;DHT22;4799;50.996;4.754;2022-10-31T18:19:52;14.40;99.90
8862;DHT22;4799;50.996;4.754;2022-10-31T18:22:18;14.40;99.90
8862;DHT22;4799;50.996;4.754;2022-10-31T18:24:43;14.40;99.90
8862;DHT22;4799;50.996;4.754;2022-10-31T18:27:09;14.40;99.90
8862;DHT22;4799;50.996;4.754;2022-10-31T18:29:35;14.40;99.90
8862;DHT22;4799;50.996;4.754;2022-10-31T18:32:00;14.40;99.90
8862;DHT22;4799;50.996;4.754;2022-10-31T18:34:26;14.40;99.90
8862;DHT22;4799;50.996;4.754;2022-10-31T18:36:52;14.40;99.90